Strona główna
METAR-TAF:

METAR-TAF

Lotnisko :

Port lotniczy Glasgow-Prestwick

Glasgow-Prestwick, Szkocja

Szerokość geograficzna: 55-30N, Długość geograficzna: 004-35W, wysokość: 20 m

Aktualna obserwacja pogody

Raport powstał 1 godzina i 14 minut temu, godzina 00:50 UTC
Wiatr 6 kt od północno-północny wschód
Temperatura 3°C
Wilgotność 65%
Ciśnienie 1047 hPa
Widzialność 10 km lub więcej
Rozproszone chmury na wysokości 3800 ft

METAR: EGPK 290050Z 02006KT 9999 SCT038 03/M03 Q1047

czas: 03:04 (02:04 UTC)

Prognoza

Raport powstał 3 godziny i 8 minut temu, godzina 22:56 UTC
Prognoza ważna od 29 godzina 00 UTC do 29 godzina 24 UTC
Wiatr 9 kt od północno-północny wschód
Widzialność 10 km lub więcej
Mało chmury na wysokości 4500 ft

TAF: EGPK 282256Z 2900/2924 03009KT 9999 FEW045

Obserwacja i prognoza pogody dla ponad 4000 lotnisk (raport METAR i TAF).

Dostępne stacje oznaczono żółtymi i czerwonymi punktami na mapie.

Najedź kursorem aby zobaczyć nazwę stacji.

Kliknij aby zobaczyć obserwacje i prognozy pogody.

Aby zmienić mapę: kliknij na zielony przycisk z czarnym krzyżykiem, aby powiększyć; na zielony przycisk z myślnikiem, aby pomniejszyć; na zielone strzałki, aby przejść do map sąsiednich.


METAR-TAF: